Airfield :
LOGIN :

Register | Disclaimer

   EN    FR    IT 

 










Legend :    VFR   Marginal VFR   IFR   Intensive IFR   Very Intensive IFR
Visi :
Ceiling :
>= 8 km
>= 3000ft
5 to 8 km
1000 to 3000 ft
1500m to 5 km
500 to 1000 ft
800 to 1500m
200 to 500 ft
< 800m
< 200 ft
Symbols :   Thunderstorms  Fog  Heavy snow  Heavy precipitations  Wind > 20 kt
SIGMETs :     Misc.  Thunderstorms  Icing  Turbulence  Mountain Waves  Volcanic Ashes






- Airport Elevation : 272 ft
- IATA code : MXN


LFRU - Morlaix-Ploujean

CURRENT METAR :
  • 021930Z AUTO 32007KT 9999 SCT013 BKN021 OVC026 09/07 Q1020

EXPIRED METARs :
  • 021900Z AUTO 33009KT 9999 BKN013 BKN024 OVC043 09/07 Q1020
  • 021830Z AUTO 33009KT 9999 FEW012 BKN024 OVC030 09/07 Q1019
  • 021800Z AUTO 33008KT 9999 FEW014 BKN031 OVC037 09/07 Q1019
  • 021730Z AUTO 34011KT 9999 SCT016 BKN031 BKN037 10/06 Q1019
  • 021700Z AUTO 33011KT 9999 BKN017 BKN024 OVC036 10/06 Q1019

TAF N/A



MET'MAP, your aeronautical weather chart ! - Copyright ORBIFLY December 2007 - Disclaimer

ORBIFLY MET'MAP TEAM :

Programming & Development : Alexandra Zaïnal
Concept & original design : Baudouin d'Aumeries
Assistance for programming : Marc-Olivier Méhu
Technical & hardware support : Manuel Goepfert

Contact : metmap@orbifly.com




SOURCES & CREDITS :

   NOAA